Airfield :
LOGIN :

Register | Disclaimer

   EN    FR    IT 

 










Legend :    VFR   Marginal VFR   IFR   Intensive IFR   Very Intensive IFR
Visi :
Ceiling :
>= 8 km
>= 3000ft
5 to 8 km
1000 to 3000 ft
1500m to 5 km
500 to 1000 ft
800 to 1500m
200 to 500 ft
< 800m
< 200 ft
Symbols :   Thunderstorms  Fog  Heavy snow  Heavy precipitations  Wind > 20 kt
SIGMETs :     Misc.  Thunderstorms  Icing  Turbulence  Mountain Waves  Volcanic Ashes






- Airport Elevation : 1512 ft
- IATA code : GHA


DAUG - Noumerate - Ghardaia

CURRENT METAR :
  • 151000Z 06007KT 1000 HZ SCT040 SCT100 34/12 Q1015

EXPIRED METARs :
  • 150900Z 05010KT 1000 HZ SCT040 SCT090 32/12 Q1014
  • 150800Z 01010KT 1000 HZ BKN040 30/12 Q1014

TAF TAF DAUG
Valid from the 15 at 06:00 until the 16 at 06:00 UTC


150500Z 1506/1606 05008KT 3000 HZ BKN033
TEMPO 1506/1510 1000 FEW033CB
PROB40
TEMPO 1506/1509 02015G30KT 0500 BLSA
BECMG 1510/1514 6000 NSW
PROB40
TEMPO 1516/1520 04015G30KT 0500 BLSA FEW033CB



MET'MAP, your aeronautical weather chart ! - Copyright ORBIFLY December 2007 - Disclaimer

ORBIFLY MET'MAP TEAM :

Programming & Development : Alexandra Zaïnal
Concept & original design : Baudouin d'Aumeries
Assistance for programming : Marc-Olivier Méhu
Technical & hardware support : Manuel Goepfert

Contact : metmap@orbifly.com




SOURCES & CREDITS :

   NOAA